Time;durP1;ratioP1;P1;durP2;ratioP2;P2;SDS_P1;SDS_P2;PMS_P1;PMS_P2;Temp;Humidity;BMP_temperature;BMP_pressure;BME280_temperature;BME280_humidity;BME280_pressure;Samples;Min_cycle;Max_cycle;Signal;HPM_P1;HPM_P2
2022/09/13 00:00:36;;;;;;;9.30;5.20;;;20.00;74.40;;;;;;4985606;28;20125;-76
2022/09/13 00:03:02;;;;;;;8.93;5.35;;;20.00;74.30;;;;;;4986510;28;20034;-77
2022/09/13 00:05:28;;;;;;;9.90;5.30;;;20.00;74.20;;;;;;4985915;28;20035;-77
2022/09/13 00:07:55;;;;;;;8.07;5.47;;;20.00;74.20;;;;;;4993501;28;20398;-76
2022/09/13 00:10:21;;;;;;;8.73;5.38;;;19.90;73.90;;;;;;4986384;28;20053;-75
2022/09/13 00:12:48;;;;;;;7.72;4.75;;;20.00;73.90;;;;;;4989434;28;20034;-76
2022/09/13 00:15:14;;;;;;;7.57;5.25;;;19.90;74.20;;;;;;4985925;28;20041;-77
2022/09/13 00:17:40;;;;;;;8.63;5.43;;;19.90;74.40;;;;;;4981487;28;20394;-76
2022/09/13 00:20:06;;;;;;;10.43;5.80;;;19.80;74.60;;;;;;4983571;28;20046;-76
2022/09/13 00:22:32;;;;;;;7.95;5.28;;;19.90;74.50;;;;;;4982668;28;20140;-78
2022/09/13 00:24:57;;;;;;;8.98;5.18;;;19.80;74.40;;;;;;4982856;28;20045;-76
2022/09/13 00:27:23;;;;;;;9.43;5.47;;;19.80;74.40;;;;;;4986598;28;20042;-76
2022/09/13 00:29:49;;;;;;;8.32;5.55;;;19.90;74.40;;;;;;4981782;28;20049;-77
2022/09/13 00:32:14;;;;;;;7.30;4.68;;;19.80;74.40;;;;;;4978739;28;20054;-76
2022/09/13 00:34:40;;;;;;;10.70;5.63;;;19.90;74.60;;;;;;4973816;28;20259;-77
2022/09/13 00:37:05;;;;;;;10.13;5.70;;;19.80;74.60;;;;;;4983757;28;20049;-77
2022/09/13 00:39:32;;;;;;;8.70;5.72;;;19.80;74.50;;;;;;4979397;28;20118;-76
2022/09/13 00:41:57;;;;;;;8.57;5.45;;;19.90;74.40;;;;;;4984233;28;20069;-76
2022/09/13 00:44:51;;;;;;;8.85;5.15;;;19.80;74.50;;;;;;4980876;28;20682;-76
2022/09/13 00:47:23;;;;;;;8.73;5.35;;;19.80;74.60;;;;;;4983494;28;20061;-77
2022/09/13 00:49:53;;;;;;;7.28;5.15;;;19.80;74.60;;;;;;4983979;28;20031;-78
2022/09/13 00:52:21;;;;;;;11.35;6.60;;;19.80;74.70;;;;;;4985579;28;20034;-78
2022/09/13 00:54:56;;;;;;;7.72;5.20;;;19.70;74.80;;;;;;4981309;28;20045;-78
2022/09/13 00:57:23;;;;;;;8.55;5.57;;;19.80;74.90;;;;;;4983036;28;20866;-78
2022/09/13 01:00:12;;;;;;;9.20;6.10;;;19.80;74.90;;;;;;4977673;28;20038;-78
2022/09/13 01:03:03;;;;;;;10.98;5.20;;;19.70;75.00;;;;;;4982814;28;20054;-78
2022/09/13 01:05:37;;;;;;;8.77;5.15;;;19.70;75.30;;;;;;4977489;28;20168;-78
2022/09/13 01:08:09;;;;;;;8.52;4.78;;;19.70;75.60;;;;;;4982861;28;20046;-77
2022/09/13 01:10:38;;;;;;;8.40;6.00;;;19.60;75.90;;;;;;4983937;28;20042;-77
2022/09/13 01:13:17;;;;;;;9.85;5.78;;;19.60;76.00;;;;;;4983923;28;20046;-77
2022/09/13 01:15:42;;;;;;;7.13;4.82;;;19.60;76.10;;;;;;4975782;28;20118;-79
2022/09/13 01:18:10;;;;;;;9.00;5.68;;;19.60;76.30;;;;;;4984171;28;20124;-77
2022/09/13 01:20:59;;;;;;;9.02;5.85;;;19.60;76.60;;;;;;4983552;28;20042;-77
2022/09/13 01:24:18;;;;;;;11.30;6.18;;;19.50;76.80;;;;;;4977509;28;20050;-79
2022/09/13 01:27:12;;;;;;;8.60;6.05;;;19.50;76.90;;;;;;4979596;28;20506;-77
2022/09/13 01:30:04;;;;;;;10.20;5.60;;;19.50;77.10;;;;;;4984821;28;20045;-80
2022/09/13 01:32:40;;;;;;;8.52;5.95;;;19.40;77.40;;;;;;4977694;28;20042;-78
2022/09/13 01:35:25;;;;;;;10.25;6.40;;;19.40;77.70;;;;;;4983797;28;20030;-77
2022/09/13 01:37:56;;;;;;;10.13;6.00;;;19.40;77.90;;;;;;4978246;28;20407;-79
2022/09/13 01:40:31;;;;;;;10.35;6.05;;;19.30;78.20;;;;;;4979144;28;20863;-77
2022/09/13 01:43:24;;;;;;;11.63;6.57;;;19.30;78.50;;;;;;4981052;28;20419;-78
2022/09/13 01:45:49;;;;;;;9.85;6.35;;;19.20;78.80;;;;;;4983356;28;20822;-76
2022/09/13 01:48:33;;;;;;;9.48;6.10;;;19.20;79.10;;;;;;4983661;28;20035;-76
2022/09/13 01:51:33;;;;;;;9.13;6.07;;;19.10;79.40;;;;;;4982236;28;20486;-75
2022/09/13 01:54:16;;;;;;;9.13;6.15;;;19.10;79.60;;;;;;4970025;28;20045;-76
2022/09/13 01:57:02;;;;;;;9.38;6.38;;;19.10;79.80;;;;;;4977258;28;20812;-78
2022/09/13 01:59:46;;;;;;;10.90;7.00;;;19.10;80.00;;;;;;4963328;28;20093;-78
2022/09/13 02:02:14;;;;;;;10.13;6.78;;;19.10;80.10;;;;;;4963615;28;20039;-77
2022/09/13 02:04:45;;;;;;;10.40;7.47;;;19.10;80.30;;;;;;4963297;28;20745;-77
2022/09/13 02:07:18;;;;;;;10.55;6.80;;;19.10;80.30;;;;;;4965520;28;20042;-77
2022/09/13 02:09:49;;;;;;;9.03;7.10;;;19.10;80.40;;;;;;4960345;28;20055;-77
2022/09/13 02:12:21;;;;;;;12.10;7.68;;;19.00;80.60;;;;;;4961873;28;20376;-77
2022/09/13 02:15:03;;;;;;;12.63;7.18;;;19.00;80.60;;;;;;4960184;28;20058;-77
2022/09/13 02:17:36;;;;;;;10.25;7.13;;;18.90;80.80;;;;;;4982548;28;20062;-78
2022/09/13 02:20:10;;;;;;;9.32;6.88;;;18.90;80.90;;;;;;4967065;28;20482;-78
2022/09/13 02:22:41;;;;;;;9.10;6.85;;;18.90;81.00;;;;;;4961651;28;20042;-77
2022/09/13 02:25:12;;;;;;;10.82;7.28;;;18.90;81.10;;;;;;4965284;28;20434;-78
2022/09/13 02:27:43;;;;;;;9.70;6.95;;;18.90;81.10;;;;;;4977034;28;20034;-80
2022/09/13 02:30:11;;;;;;;10.35;7.30;;;18.90;81.20;;;;;;4976919;28;20039;-78
2022/09/13 02:32:48;;;;;;;9.32;6.90;;;18.80;81.20;;;;;;4976706;28;20141;-79
2022/09/13 02:35:22;;;;;;;10.18;7.50;;;18.80;81.40;;;;;;4982746;28;20106;-78
2022/09/13 02:37:56;;;;;;;9.85;7.15;;;18.80;81.40;;;;;;4983821;28;20034;-78
2022/09/13 02:40:29;;;;;;;8.90;6.63;;;18.80;81.40;;;;;;4982554;28;20066;-77
2022/09/13 02:43:41;;;;;;;11.65;7.95;;;18.80;81.40;;;;;;4987268;28;20833;-77
2022/09/13 02:46:14;;;;;;;10.35;7.82;;;18.80;81.50;;;;;;4994873;28;20062;-77
2022/09/13 02:49:00;;;;;;;10.70;6.85;;;18.80;81.50;;;;;;4993328;28;20109;-77
2022/09/13 02:51:32;;;;;;;9.55;6.88;;;18.80;81.50;;;;;;4992923;28;20042;-77
2022/09/13 02:54:08;;;;;;;11.52;7.93;;;18.80;81.60;;;;;;4985789;28;20359;-76
2022/09/13 02:56:48;;;;;;;9.77;7.07;;;18.80;81.60;;;;;;4966031;28;20047;-78
2022/09/13 02:59:19;;;;;;;9.32;6.70;;;18.80;81.70;;;;;;4988277;28;20030;-77
2022/09/13 03:01:53;;;;;;;11.20;7.05;;;18.80;81.80;;;;;;4983179;28;20126;-77
2022/09/13 03:04:18;;;;;;;11.10;7.07;;;18.80;81.80;;;;;;4985858;28;20152;-78
2022/09/13 03:06:44;;;;;;;12.43;8.30;;;18.80;81.60;;;;;;4983428;28;20180;-77
2022/09/13 03:09:10;;;;;;;12.15;8.40;;;18.90;81.70;;;;;;4987584;28;20072;-78
2022/09/13 03:11:45;;;;;;;13.77;9.48;;;18.90;81.50;;;;;;4985326;28;20047;-77
2022/09/13 03:14:24;;;;;;;12.88;8.27;;;18.80;81.40;;;;;;4985984;28;20038;-76
2022/09/13 03:17:08;;;;;;;13.20;8.68;;;18.90;81.40;;;;;;4982114;28;20042;-77
2022/09/13 03:20:12;;;;;;;10.20;7.75;;;18.90;81.40;;;;;;4960861;28;20031;-80
2022/09/13 03:23:11;;;;;;;11.07;7.13;;;18.80;81.40;;;;;;4988663;28;20053;-76
2022/09/13 03:26:05;;;;;;;10.82;7.60;;;18.80;81.50;;;;;;4966500;28;20193;-77
2022/09/13 03:28:37;;;;;;;11.38;8.50;;;18.80;81.60;;;;;;4985515;28;20042;-77
2022/09/13 03:31:25;;;;;;;9.98;7.88;;;18.70;81.60;;;;;;4986630;28;20120;-77
2022/09/13 03:34:05;;;;;;;10.63;7.63;;;18.80;81.60;;;;;;4983796;28;20038;-77
2022/09/13 03:36:41;;;;;;;10.40;7.93;;;18.80;81.70;;;;;;4983606;28;20042;-76
2022/09/13 03:39:39;;;;;;;11.02;8.55;;;18.70;81.70;;;;;;4985680;28;20038;-77
2022/09/13 03:42:23;;;;;;;11.07;8.23;;;18.70;81.70;;;;;;4981204;28;20057;-77
2022/09/13 03:44:51;;;;;;;10.27;8.63;;;18.70;81.70;;;;;;4984899;28;20057;-77
2022/09/13 03:47:18;;;;;;;13.32;8.18;;;18.70;81.80;;;;;;4984719;28;20034;-79
2022/09/13 03:49:45;;;;;;;14.13;8.80;;;18.60;81.80;;;;;;4981551;28;20038;-78
2022/09/13 03:52:11;;;;;;;13.82;8.25;;;18.60;82.00;;;;;;4984896;28;20485;-79
2022/09/13 03:54:38;;;;;;;10.88;8.00;;;18.60;82.10;;;;;;4984339;28;20494;-76
2022/09/13 03:57:12;;;;;;;11.38;8.23;;;18.70;82.20;;;;;;4982588;28;20034;-78
2022/09/13 03:59:42;;;;;;;10.02;7.57;;;18.70;82.30;;;;;;4984136;28;20039;-79
2022/09/13 04:02:11;;;;;;;9.90;7.32;;;18.70;82.20;;;;;;4983425;28;20042;-77
2022/09/13 04:04:41;;;;;;;11.90;7.28;;;18.70;82.20;;;;;;4981632;28;20458;-76
2022/09/13 04:07:08;;;;;;;12.57;7.90;;;18.70;82.20;;;;;;4985013;28;20463;-77
2022/09/13 04:09:34;;;;;;;10.45;7.50;;;18.70;82.30;;;;;;4981581;28;20085;-78
2022/09/13 04:12:00;;;;;;;12.15;8.02;;;18.70;82.20;;;;;;4984033;28;20125;-78
2022/09/13 04:14:25;;;;;;;11.32;8.15;;;18.70;82.30;;;;;;4984462;28;20381;-77
2022/09/13 04:16:55;;;;;;;11.30;8.25;;;18.70;82.20;;;;;;4980828;28;20034;-79
2022/09/13 04:19:23;;;;;;;13.40;8.00;;;18.70;82.40;;;;;;4979389;28;20121;-77
2022/09/13 04:21:50;;;;;;;13.82;8.27;;;18.70;82.50;;;;;;4989966;28;20054;-77
2022/09/13 04:24:17;;;;;;;11.77;8.10;;;18.70;82.50;;;;;;4979953;28;20543;-76
2022/09/13 04:26:43;;;;;;;12.48;8.35;;;18.70;82.60;;;;;;4974328;28;20050;-77
2022/09/13 04:29:10;;;;;;;12.98;8.73;;;18.70;82.70;;;;;;4973072;28;20042;-77
2022/09/13 04:31:36;;;;;;;11.27;8.43;;;18.70;82.80;;;;;;4970993;28;20387;-78
2022/09/13 04:34:03;;;;;;;12.60;8.77;;;18.70;82.90;;;;;;4975528;28;20356;-79
2022/09/13 04:36:30;;;;;;;10.60;8.35;;;18.70;82.90;;;;;;4976872;28;20232;-78
2022/09/13 04:38:57;;;;;;;11.95;8.68;;;18.70;82.90;;;;;;4978302;28;20077;-81
2022/09/13 04:41:22;;;;;;;10.98;8.18;;;18.70;83.00;;;;;;4975634;28;20454;-79
2022/09/13 04:43:49;;;;;;;10.80;7.60;;;18.70;83.10;;;;;;4974715;28;20046;-77
2022/09/13 04:46:15;;;;;;;10.60;8.30;;;18.70;83.10;;;;;;4980702;28;20050;-76
2022/09/13 04:48:41;;;;;;;13.05;9.70;;;18.70;83.20;;;;;;4979443;28;20042;-77
2022/09/13 04:51:07;;;;;;;11.82;8.27;;;18.60;83.30;;;;;;4983978;28;20116;-79
2022/09/13 04:53:33;;;;;;;12.45;8.13;;;18.60;83.50;;;;;;4975469;28;20205;-77
2022/09/13 04:56:06;;;;;;;11.05;8.65;;;18.60;83.70;;;;;;4979220;28;20050;-77
2022/09/13 04:58:31;;;;;;;10.63;8.20;;;18.60;83.70;;;;;;4976832;28;20033;-77
2022/09/13 05:01:06;;;;;;;12.68;8.32;;;18.60;83.60;;;;;;4971373;28;20043;-77
2022/09/13 05:03:32;;;;;;;12.27;8.32;;;18.60;83.70;;;;;;4974284;28;20043;-77
2022/09/13 05:06:09;;;;;;;13.60;8.98;;;18.60;83.70;;;;;;4970810;28;20142;-78
2022/09/13 05:08:36;;;;;;;13.48;8.65;;;18.60;83.80;;;;;;4975550;28;20494;-78
2022/09/13 05:11:02;;;;;;;10.68;8.30;;;18.60;83.90;;;;;;4973401;28;20046;-79
2022/09/13 05:13:28;;;;;;;13.45;8.15;;;18.60;83.90;;;;;;4975480;28;20042;-78
2022/09/13 05:15:59;;;;;;;10.60;8.10;;;18.60;83.80;;;;;;4974151;28;20029;-76
2022/09/13 05:18:28;;;;;;;13.00;9.20;;;18.60;83.90;;;;;;4970423;28;20053;-77
2022/09/13 05:20:55;;;;;;;11.27;8.20;;;18.60;84.00;;;;;;4970309;28;20046;-77
2022/09/13 05:23:22;;;;;;;13.95;8.55;;;18.60;84.00;;;;;;4973321;28;20094;-79
2022/09/13 05:25:59;;;;;;;12.02;8.68;;;18.60;84.10;;;;;;4966981;28;20065;-77
2022/09/13 05:28:27;;;;;;;12.25;8.52;;;18.60;84.10;;;;;;4970684;28;20045;-77
2022/09/13 05:30:57;;;;;;;11.65;8.38;;;18.60;84.00;;;;;;4978558;28;20026;-77
2022/09/13 05:33:24;;;;;;;14.15;9.38;;;18.60;84.00;;;;;;4979926;28;20030;-77
2022/09/13 05:35:50;;;;;;;14.32;8.57;;;18.60;84.10;;;;;;4981875;28;20034;-78
2022/09/13 05:38:16;;;;;;;12.00;7.80;;;18.60;84.20;;;;;;4981936;28;20038;-77
2022/09/13 05:40:42;;;;;;;13.88;7.85;;;18.60;84.30;;;;;;4975017;28;20467;-77
2022/09/13 05:43:07;;;;;;;10.90;8.13;;;18.60;84.40;;;;;;4973151;28;20510;-77
2022/09/13 05:45:33;;;;;;;15.77;8.88;;;18.60;84.40;;;;;;4976465;28;20413;-79
2022/09/13 05:47:59;;;;;;;14.18;9.00;;;18.60;84.30;;;;;;4975651;28;20680;-77
2022/09/13 05:50:24;;;;;;;11.07;8.38;;;18.60;84.20;;;;;;4971935;28;20130;-79
2022/09/13 05:52:56;;;;;;;14.88;8.82;;;18.70;84.30;;;;;;4979440;28;20042;-77
2022/09/13 05:55:22;;;;;;;19.80;9.35;;;18.60;84.30;;;;;;4973444;28;20390;-77
2022/09/13 05:57:49;;;;;;;13.60;8.52;;;18.60;84.30;;;;;;4981187;28;20520;-77
2022/09/13 06:00:15;;;;;;;11.55;8.52;;;18.60;84.40;;;;;;4980478;28;20093;-77
2022/09/13 06:02:41;;;;;;;14.45;9.45;;;18.70;84.30;;;;;;4979507;28;20042;-78
2022/09/13 06:05:10;;;;;;;15.88;10.02;;;18.70;84.20;;;;;;4980728;28;20390;-76
2022/09/13 06:07:40;;;;;;;16.27;9.70;;;18.70;83.90;;;;;;4979460;28;20038;-76
2022/09/13 06:10:07;;;;;;;16.88;9.90;;;18.70;83.90;;;;;;4985255;28;20049;-78
2022/09/13 06:12:32;;;;;;;16.15;9.70;;;18.70;84.00;;;;;;4990180;28;20422;-77
2022/09/13 06:14:58;;;;;;;15.55;9.23;;;18.70;84.00;;;;;;4988743;28;20141;-77
2022/09/13 06:17:24;;;;;;;15.02;10.07;;;18.70;83.90;;;;;;4986816;28;20113;-76
2022/09/13 06:19:51;;;;;;;12.57;9.23;;;18.80;83.80;;;;;;4983742;28;20069;-80
2022/09/13 06:22:17;;;;;;;15.43;9.63;;;18.90;83.50;;;;;;4985285;28;20593;-80
2022/09/13 06:24:43;;;;;;;14.63;9.38;;;18.90;83.30;;;;;;4994435;28;20027;-79
2022/09/13 06:27:11;;;;;;;12.38;9.07;;;18.90;83.30;;;;;;4990872;28;20042;-81
2022/09/13 06:29:37;;;;;;;11.75;8.68;;;19.00;83.30;;;;;;4989582;28;20050;-80
2022/09/13 06:32:03;;;;;;;16.77;10.63;;;19.10;83.20;;;;;;4987389;28;20049;-79
2022/09/13 06:34:29;;;;;;;16.90;10.85;;;19.10;82.50;;;;;;4981843;28;20573;-80
2022/09/13 06:36:55;;;;;;;13.60;10.15;;;19.00;82.60;;;;;;4985015;28;20471;-80
2022/09/13 06:39:21;;;;;;;17.67;10.13;;;19.10;82.80;;;;;;4977667;28;20412;-81
2022/09/13 06:41:47;;;;;;;15.63;9.40;;;19.20;82.70;;;;;;4982188;28;20041;-82
2022/09/13 06:44:13;;;;;;;12.75;8.95;;;19.30;82.60;;;;;;4981836;28;20039;-83
2022/09/13 06:46:39;;;;;;;12.23;8.57;;;19.50;82.30;;;;;;4981403;28;20403;-83
2022/09/13 06:49:07;;;;;;;11.85;8.70;;;19.60;82.10;;;;;;4978741;28;20603;-83
2022/09/13 06:51:33;;;;;;;15.48;9.50;;;19.70;81.90;;;;;;4976450;28;20477;-82
2022/09/13 06:54:00;;;;;;;16.55;9.98;;;19.80;81.60;;;;;;4984651;28;20039;-83
2022/09/13 06:56:31;;;;;;;15.98;9.07;;;19.80;80.50;;;;;;4978884;28;20039;-82
2022/09/13 06:59:07;;;;;;;14.88;10.18;;;19.90;80.90;;;;;;4977585;28;20026;-83
2022/09/13 07:01:34;;;;;;;13.43;9.75;;;20.00;80.40;;;;;;4981393;28;20446;-83
2022/09/13 07:04:05;;;;;;;15.27;9.80;;;20.10;80.40;;;;;;4980242;28;20030;-82
2022/09/13 07:06:36;;;;;;;16.45;9.85;;;20.10;80.00;;;;;;4982184;28;20031;-83
2022/09/13 07:09:04;;;;;;;14.20;9.50;;;20.10;79.90;;;;;;4984661;28;20038;-83
2022/09/13 07:11:40;;;;;;;18.45;9.93;;;20.20;79.50;;;;;;4985426;28;20409;-83
2022/09/13 07:14:06;;;;;;;16.83;9.60;;;20.30;79.70;;;;;;4984215;28;20085;-82
2022/09/13 07:16:34;;;;;;;12.40;9.00;;;20.30;79.60;;;;;;4983068;28;20043;-84
2022/09/13 07:19:04;;;;;;;13.00;9.52;;;20.30;80.10;;;;;;4982614;28;20210;-85
2022/09/13 07:21:31;;;;;;;16.45;10.60;;;20.30;80.00;;;;;;4986478;28;20050;-83
2022/09/13 07:23:57;;;;;;;19.13;11.05;;;20.40;79.70;;;;;;4982344;28;20043;-80
2022/09/13 07:26:24;;;;;;;17.98;10.40;;;20.40;79.70;;;;;;4984494;28;20026;-81
2022/09/13 07:28:53;;;;;;;17.50;10.48;;;20.40;79.80;;;;;;4982461;28;20038;-82
2022/09/13 07:31:21;;;;;;;13.82;10.07;;;20.50;79.70;;;;;;4982947;28;20046;-83
2022/09/13 07:33:53;;;;;;;16.55;10.50;;;20.50;79.40;;;;;;4982785;28;20038;-82
2022/09/13 07:36:20;;;;;;;15.18;10.35;;;20.60;79.50;;;;;;4980120;28;20093;-81
2022/09/13 07:38:47;;;;;;;15.70;9.65;;;20.60;78.80;;;;;;4986824;28;20489;-83
2022/09/13 07:41:18;;;;;;;17.63;10.98;;;20.70;78.50;;;;;;4986550;28;20065;-81
2022/09/13 07:43:44;;;;;;;15.13;11.10;;;20.80;77.90;;;;;;4987362;28;20042;-83
2022/09/13 07:46:16;;;;;;;16.85;11.57;;;20.90;77.20;;;;;;4987195;28;20054;-82
2022/09/13 07:48:44;;;;;;;19.20;13.20;;;21.00;76.60;;;;;;4986229;28;20042;-83
2022/09/13 07:51:37;;;;;;;17.35;11.73;;;21.10;76.30;;;;;;4993221;28;20112;-82
2022/09/13 07:54:05;;;;;;;17.05;10.88;;;21.10;75.70;;;;;;4973845;28;20046;-82
2022/09/13 07:56:33;;;;;;;15.40;9.93;;;21.10;76.30;;;;;;4984038;28;20034;-82
2022/09/13 07:59:01;;;;;;;17.50;11.98;;;21.20;76.10;;;;;;4987112;28;20085;-80
2022/09/13 08:01:28;;;;;;;16.20;11.65;;;21.20;75.30;;;;;;4986663;28;20061;-83
2022/09/13 08:03:56;;;;;;;18.27;12.77;;;21.20;75.00;;;;;;5001116;28;20034;-83
2022/09/13 08:06:24;;;;;;;15.55;11.82;;;21.30;75.00;;;;;;5004260;28;20038;-83
2022/09/13 08:08:49;;;;;;;15.98;12.10;;;21.40;74.80;;;;;;5000662;28;20039;-83
2022/09/13 08:11:31;;;;;;;14.93;12.05;;;21.40;74.60;;;;;;4996369;28;20769;-80
2022/09/13 08:13:58;;;;;;;16.67;11.95;;;21.60;74.70;;;;;;4997456;28;20055;-84
2022/09/13 08:16:25;;;;;;;16.60;12.27;;;21.70;74.20;;;;;;4996411;28;20089;-82
2022/09/13 08:18:54;;;;;;;18.08;14.80;;;21.70;74.20;;;;;;4983953;28;20034;-82
2022/09/13 08:21:21;;;;;;;18.80;15.35;;;21.70;73.30;;;;;;4986165;28;20042;-83
2022/09/13 08:23:47;;;;;;;20.27;17.00;;;21.80;72.70;;;;;;4982067;28;20121;-81
2022/09/13 08:26:12;;;;;;;20.58;16.17;;;21.80;72.40;;;;;;4983927;28;20478;-83
2022/09/13 08:28:39;;;;;;;20.80;16.77;;;21.80;72.40;;;;;;4982930;28;20429;-80
2022/09/13 08:31:06;;;;;;;22.88;17.38;;;21.80;71.90;;;;;;4982881;28;20727;-80
2022/09/13 08:33:32;;;;;;;24.52;17.50;;;21.80;72.80;;;;;;4982242;28;20034;-81
2022/09/13 08:35:58;;;;;;;21.10;17.98;;;21.80;72.60;;;;;;4983593;28;20097;-80
2022/09/13 08:38:24;;;;;;;22.10;18.52;;;21.80;73.20;;;;;;4981464;28;20442;-82
2022/09/13 08:40:54;;;;;;;20.23;17.48;;;21.80;73.60;;;;;;4986771;28;20029;-81
2022/09/13 08:43:44;;;;;;;23.38;18.10;;;21.90;73.80;;;;;;4983771;28;20051;-82
2022/09/13 08:46:26;;;;;;;23.92;18.20;;;22.00;73.70;;;;;;4985151;28;20053;-84
2022/09/13 08:48:57;;;;;;;26.52;18.75;;;22.10;73.80;;;;;;4987964;28;20037;-83
2022/09/13 08:51:43;;;;;;;20.38;18.23;;;22.10;73.80;;;;;;4983067;28;20046;-85
2022/09/13 08:54:14;;;;;;;23.83;18.50;;;22.20;73.70;;;;;;4984072;28;20058;-85
2022/09/13 08:57:08;;;;;;;23.67;20.17;;;22.30;73.50;;;;;;4985036;28;20454;-82
2022/09/13 08:59:47;;;;;;;22.85;19.17;;;22.30;73.40;;;;;;4983755;28;20038;-81
2022/09/13 09:02:41;;;;;;;22.35;18.58;;;22.50;73.50;;;;;;4980339;28;20358;-82
2022/09/13 09:05:18;;;;;;;23.67;19.03;;;22.60;72.70;;;;;;4978693;28;20034;-82
2022/09/13 09:07:53;;;;;;;20.63;18.45;;;22.90;71.30;;;;;;4985372;28;20038;-83
2022/09/13 09:10:47;;;;;;;23.50;19.67;;;23.00;70.90;;;;;;4984671;28;20034;-83
2022/09/13 09:13:37;;;;;;;22.63;18.88;;;22.90;70.60;;;;;;4973674;28;20591;-83
2022/09/13 09:16:34;;;;;;;21.85;18.20;;;22.80;71.20;;;;;;4978868;28;20034;-84
2022/09/13 09:19:23;;;;;;;24.75;19.27;;;22.60;71.40;;;;;;4980880;28;20045;-83
2022/09/13 09:21:50;;;;;;;21.50;17.25;;;22.80;71.30;;;;;;4978451;28;20061;-83
2022/09/13 09:24:21;;;;;;;21.13;17.42;;;22.80;72.00;;;;;;4962121;28;20122;-82
2022/09/13 09:26:47;;;;;;;22.60;19.33;;;22.80;71.60;;;;;;4986066;28;20062;-83
2022/09/13 09:29:27;;;;;;;24.40;19.25;;;22.80;71.40;;;;;;4983837;28;20461;-84
2022/09/13 09:32:27;;;;;;;23.17;18.80;;;22.70;70.60;;;;;;4981967;28;20038;-83
2022/09/13 09:34:58;;;;;;;23.77;19.58;;;22.60;71.70;;;;;;4982917;28;20037;-84
2022/09/13 09:37:27;;;;;;;25.92;20.58;;;22.70;71.20;;;;;;4978439;28;20042;-80
2022/09/13 09:39:59;;;;;;;27.38;20.50;;;22.70;71.50;;;;;;4979580;28;20042;-82
2022/09/13 09:42:28;;;;;;;30.30;21.33;;;22.90;70.60;;;;;;4973171;28;20042;-77
2022/09/13 09:45:17;;;;;;;26.10;19.52;;;22.90;71.10;;;;;;4984104;28;20128;-80
2022/09/13 09:47:50;;;;;;;24.92;19.67;;;23.00;71.40;;;;;;4981195;28;20034;-80
2022/09/13 09:50:16;;;;;;;24.15;19.88;;;23.30;69.60;;;;;;4984916;28;20026;-79
2022/09/13 09:53:08;;;;;;;26.63;20.23;;;23.40;69.40;;;;;;4985301;28;20042;-77
2022/09/13 09:55:52;;;;;;;24.58;19.63;;;23.30;70.10;;;;;;4982804;28;20754;-77
2022/09/13 09:58:39;;;;;;;23.83;18.67;;;23.30;70.30;;;;;;4964391;28;20101;-77
2022/09/13 10:01:08;;;;;;;22.88;19.55;;;23.60;70.10;;;;;;4962066;28;20483;-79
2022/09/13 10:03:34;;;;;;;24.00;19.27;;;23.60;68.90;;;;;;4964758;28;20172;-78
2022/09/13 10:06:11;;;;;;;27.35;20.70;;;23.90;69.70;;;;;;4964553;28;20039;-81
2022/09/13 10:08:40;;;;;;;20.77;18.15;;;24.10;68.90;;;;;;4982853;28;20487;-79
2022/09/13 10:11:07;;;;;;;24.30;20.55;;;24.30;68.50;;;;;;4993002;28;20050;-79
2022/09/13 10:13:33;;;;;;;26.90;20.13;;;24.20;66.40;;;;;;4983401;28;20049;-80
2022/09/13 10:16:04;;;;;;;26.25;20.77;;;24.10;68.00;;;;;;4984463;28;20036;-81
2022/09/13 10:18:35;;;;;;;23.45;20.98;;;24.30;68.20;;;;;;4983032;28;20119;-84
2022/09/13 10:21:21;;;;;;;25.15;21.00;;;24.50;68.00;;;;;;4986030;28;20026;-82
2022/09/13 10:23:49;;;;;;;24.52;20.17;;;24.60;66.90;;;;;;4959951;28;20153;-83
2022/09/13 10:26:25;;;;;;;27.02;21.13;;;24.80;66.60;;;;;;4954709;28;20020;-82
2022/09/13 10:29:01;;;;;;;21.92;18.52;;;24.90;66.90;;;;;;4956927;28;20072;-81
2022/09/13 10:31:30;;;;;;;25.00;22.30;;;25.10;66.80;;;;;;4958270;28;20042;-82
2022/09/13 10:34:26;;;;;;;28.77;23.13;;;25.00;65.60;;;;;;4955193;28;21407;-81
2022/09/13 10:37:09;;;;;;;31.25;24.00;;;24.80;65.60;;;;;;4953194;28;20096;-80
2022/09/13 10:39:38;;;;;;;29.25;23.00;;;24.90;65.90;;;;;;4956513;28;20458;-80
2022/09/13 10:42:06;;;;;;;29.17;25.98;;;24.80;66.00;;;;;;4953441;28;20453;-80
2022/09/13 10:44:50;;;;;;;29.50;25.00;;;24.60;66.50;;;;;;4957732;28;20035;-80
2022/09/13 10:47:28;;;;;;;26.40;23.20;;;24.40;67.30;;;;;;4957476;28;20046;-79
2022/09/13 10:49:56;;;;;;;30.80;26.08;;;24.30;68.00;;;;;;4957385;28;20086;-80
2022/09/13 10:52:34;;;;;;;30.17;26.80;;;24.40;67.60;;;;;;4958062;28;20057;-79
2022/09/13 10:55:18;;;;;;;30.25;26.48;;;24.30;67.40;;;;;;4957595;28;20035;-80
2022/09/13 10:57:48;;;;;;;27.95;23.88;;;24.30;68.30;;;;;;4958090;28;20382;-79
2022/09/13 11:00:34;;;;;;;27.40;24.45;;;24.30;68.00;;;;;;4959608;28;20541;-79
2022/09/13 11:03:03;;;;;;;31.80;25.15;;;24.30;68.50;;;;;;4969458;28;20552;-81
2022/09/13 11:05:38;;;;;;;29.65;24.02;;;24.50;67.70;;;;;;4973882;28;20042;-79
2022/09/13 11:08:31;;;;;;;30.67;24.73;;;24.60;67.40;;;;;;4978397;28;20045;-81
2022/09/13 11:11:24;;;;;;;38.72;27.50;;;24.60;67.10;;;;;;4979329;28;20049;-81
2022/09/13 11:14:05;;;;;;;35.95;27.13;;;24.70;66.00;;;;;;4959741;28;22129;-81
2022/09/13 11:16:45;;;;;;;29.02;25.10;;;24.50;66.70;;;;;;4956175;28;20035;-78
2022/09/13 11:19:35;;;;;;;28.70;25.60;;;24.70;66.40;;;;;;4958100;28;20522;-78
2022/09/13 11:22:21;;;;;;;31.52;26.33;;;25.00;65.90;;;;;;4960826;28;20055;-77
2022/09/13 11:25:16;;;;;;;33.58;28.10;;;25.10;66.10;;;;;;4955964;28;20066;-77
2022/09/13 11:28:00;;;;;;;33.03;27.80;;;25.10;66.60;;;;;;4955455;28;20034;-77
2022/09/13 11:30:30;;;;;;;32.85;26.85;;;25.10;66.30;;;;;;4958515;28;20045;-76
2022/09/13 11:32:56;;;;;;;34.35;28.05;;;25.00;66.40;;;;;;4960513;28;20506;-77
2022/09/13 11:35:27;;;;;;;31.50;26.58;;;24.80;67.50;;;;;;4961580;28;20167;-75
2022/09/13 11:38:35;;;;;;;27.83;24.13;;;24.80;67.90;;;;;;4961114;28;20031;-76
2022/09/13 11:41:04;;;;;;;26.58;23.30;;;24.70;65.60;;;;;;4963294;28;20046;-79
2022/09/13 11:43:56;;;;;;;30.98;23.92;;;24.60;64.60;;;;;;4970580;28;20034;-77
2022/09/13 11:46:44;;;;;;;26.70;22.35;;;24.50;65.30;;;;;;4966501;28;20043;-80
2022/09/13 11:49:30;;;;;;;28.40;21.33;;;24.50;65.30;;;;;;4964000;28;20035;-79
2022/09/13 11:52:19;;;;;;;25.30;20.05;;;24.30;65.70;;;;;;4965962;28;20035;-76
2022/09/13 11:55:36;;;;;;;28.95;25.58;;;24.30;66.70;;;;;;4985435;28;20034;-76
2022/09/13 11:58:05;;;;;;;30.90;25.52;;;24.20;67.60;;;;;;4979122;28;20517;-76
2022/09/13 12:01:12;;;;;;;33.58;28.08;;;24.10;68.00;;;;;;4977418;28;20482;-75
2022/09/13 12:03:45;;;;;;;33.72;23.17;;;24.10;68.40;;;;;;4980873;28;20092;-77
2022/09/13 12:06:20;;;;;;;29.33;22.25;;;24.20;68.80;;;;;;4972311;28;20034;-77
2022/09/13 12:09:14;;;;;;;34.13;26.95;;;24.40;68.90;;;;;;4978542;28;20526;-77
2022/09/13 12:11:49;;;;;;;29.55;23.75;;;24.40;68.90;;;;;;4957227;28;20043;-77
2022/09/13 12:14:20;;;;;;;33.78;24.63;;;24.50;68.80;;;;;;4952213;28;20090;-78
2022/09/13 12:16:54;;;;;;;36.30;25.17;;;24.40;69.20;;;;;;4965082;28;20049;-76
2022/09/13 12:19:22;;;;;;;28.55;21.70;;;24.40;69.30;;;;;;4963120;28;20043;-76
2022/09/13 12:21:50;;;;;;;26.02;20.15;;;24.40;69.40;;;;;;4961877;28;20043;-79
2022/09/13 12:24:27;;;;;;;28.25;22.35;;;24.40;69.70;;;;;;4958696;28;20035;-79
2022/09/13 12:27:20;;;;;;;28.98;23.60;;;24.40;70.50;;;;;;4958976;28;20039;-76
2022/09/13 12:29:51;;;;;;;30.02;24.45;;;24.30;70.60;;;;;;4981668;28;20046;-78
2022/09/13 12:32:18;;;;;;;30.40;24.08;;;24.10;72.20;;;;;;4983546;28;20034;-77
2022/09/13 12:35:05;;;;;;;28.70;23.50;;;24.00;72.60;;;;;;4981626;28;20038;-79
2022/09/13 12:37:54;;;;;;;28.52;24.55;;;24.00;73.00;;;;;;4995534;28;20039;-75
2022/09/13 12:40:53;;;;;;;30.67;25.02;;;24.00;74.80;;;;;;4963541;28;20038;-79
2022/09/13 12:43:22;;;;;;;25.55;22.58;;;24.10;75.10;;;;;;4971606;28;20502;-76
2022/09/13 12:45:53;;;;;;;29.38;25.45;;;24.10;75.00;;;;;;4985717;28;20046;-77
2022/09/13 12:48:21;;;;;;;30.48;25.80;;;24.10;75.10;;;;;;4981869;28;20046;-79
2022/09/13 12:51:10;;;;;;;26.35;23.38;;;24.00;75.70;;;;;;4979737;28;20038;-75
2022/09/13 12:53:51;;;;;;;31.77;24.30;;;23.80;76.70;;;;;;4982606;28;20069;-79
2022/09/13 12:56:33;;;;;;;26.85;23.85;;;23.80;76.70;;;;;;4997780;28;20084;-78
2022/09/13 12:59:19;;;;;;;27.38;24.27;;;23.80;76.70;;;;;;5002220;28;20060;-80
2022/09/13 13:01:48;;;;;;;27.02;24.23;;;23.80;77.40;;;;;;5004056;28;20046;-84
2022/09/13 13:04:16;;;;;;;26.73;24.10;;;23.50;78.40;;;;;;4998179;28;20037;-82
2022/09/13 13:06:48;;;;;;;27.58;24.77;;;23.40;79.20;;;;;;4996082;28;20038;-77